createdAt,value
2022-10-24T00:01:23.938Z,13.30
2022-10-24T00:03:52.086Z,13.30
2022-10-24T00:06:20.844Z,13.30
2022-10-24T00:08:51.010Z,13.30
2022-10-24T00:11:20.872Z,13.30
2022-10-24T00:13:48.914Z,13.30
2022-10-24T00:16:16.823Z,13.30
2022-10-24T00:18:45.034Z,13.30
2022-10-24T00:21:13.757Z,13.30
2022-10-24T00:23:41.884Z,13.30
2022-10-24T00:26:12.575Z,13.40
2022-10-24T00:28:40.899Z,13.40
2022-10-24T00:31:12.513Z,13.30
2022-10-24T00:33:40.599Z,13.30
2022-10-24T00:36:11.893Z,13.30
2022-10-24T00:38:39.832Z,13.20
2022-10-24T00:41:07.987Z,13.20
2022-10-24T00:43:37.187Z,13.20
2022-10-24T00:46:05.246Z,13.20
2022-10-24T00:48:36.450Z,13.10
2022-10-24T00:51:07.814Z,13.10
2022-10-24T00:53:42.793Z,13.10
2022-10-24T00:56:13.519Z,13.10
2022-10-24T00:58:45.568Z,13.10
2022-10-24T01:01:13.919Z,13.10
2022-10-24T01:03:42.220Z,13.00
2022-10-24T01:06:41.440Z,13.10
2022-10-24T01:09:24.571Z,13.10
2022-10-24T01:12:04.073Z,13.10
2022-10-24T01:14:46.219Z,13.10
2022-10-24T01:17:18.379Z,13.00
2022-10-24T01:20:10.433Z,13.00
2022-10-24T01:22:47.309Z,13.00
2022-10-24T01:25:18.186Z,13.10
2022-10-24T01:27:58.900Z,13.00
2022-10-24T01:30:30.448Z,13.10
2022-10-24T01:33:03.115Z,13.10
2022-10-24T01:35:40.469Z,13.20
2022-10-24T01:38:16.035Z,13.10
2022-10-24T01:40:50.733Z,13.10
2022-10-24T01:43:24.095Z,13.10
2022-10-24T01:45:59.041Z,13.00
2022-10-24T01:48:27.974Z,13.10
2022-10-24T01:50:58.064Z,13.00
2022-10-24T01:53:28.767Z,13.00
2022-10-24T01:55:57.852Z,13.00
2022-10-24T01:58:25.813Z,12.90
2022-10-24T02:00:59.494Z,12.90
2022-10-24T02:03:32.517Z,12.90
2022-10-24T02:06:06.712Z,12.90
2022-10-24T02:08:38.390Z,12.90
2022-10-24T02:11:08.544Z,12.80
2022-10-24T02:13:45.019Z,12.80
2022-10-24T02:16:17.924Z,12.80
2022-10-24T02:18:46.472Z,12.80
2022-10-24T02:21:25.355Z,12.80
2022-10-24T02:23:56.919Z,12.80
2022-10-24T02:26:32.290Z,12.80
2022-10-24T02:29:07.192Z,12.80
2022-10-24T02:31:42.051Z,12.70
2022-10-24T02:36:47.010Z,12.70
2022-10-24T02:39:16.445Z,12.60
2022-10-24T02:41:46.399Z,12.60
2022-10-24T02:44:16.437Z,12.60
2022-10-24T02:46:47.581Z,12.60
2022-10-24T02:49:15.620Z,12.60
2022-10-24T02:51:45.676Z,12.60
2022-10-24T02:54:14.155Z,12.60
2022-10-24T02:56:47.044Z,12.60
2022-10-24T02:59:14.985Z,12.50
2022-10-24T03:01:42.970Z,12.50
2022-10-24T03:04:12.583Z,12.50
2022-10-24T03:06:40.602Z,12.50
2022-10-24T03:09:08.484Z,12.50
2022-10-24T03:11:36.403Z,12.50
2022-10-24T03:14:04.367Z,12.50
2022-10-24T03:16:32.443Z,12.50
2022-10-24T03:19:00.545Z,12.50
2022-10-24T03:21:29.760Z,12.50
2022-10-24T03:23:57.814Z,12.50
2022-10-24T03:26:25.826Z,12.50
2022-10-24T03:28:53.702Z,12.40
2022-10-24T03:31:21.571Z,12.40
2022-10-24T03:33:49.489Z,12.40
2022-10-24T03:36:17.573Z,12.40
2022-10-24T03:38:46.833Z,12.40
2022-10-24T03:41:14.768Z,12.40
2022-10-24T03:43:42.659Z,12.40
2022-10-24T03:46:10.551Z,12.40
2022-10-24T03:48:38.427Z,12.40
2022-10-24T03:51:06.602Z,12.40
2022-10-24T03:53:34.488Z,12.40
2022-10-24T03:56:06.174Z,12.40
2022-10-24T03:58:34.129Z,12.40
2022-10-24T04:01:02.273Z,12.40
2022-10-24T04:03:30.341Z,12.40
2022-10-24T04:05:58.280Z,12.40
2022-10-24T04:08:26.169Z,12.40
2022-10-24T04:10:54.258Z,12.40
2022-10-24T04:13:23.570Z,12.40
2022-10-24T04:15:51.519Z,12.40
2022-10-24T04:18:19.621Z,12.40
2022-10-24T04:20:47.565Z,12.40
2022-10-24T04:23:15.467Z,12.30
2022-10-24T04:25:43.938Z,12.40
2022-10-24T04:28:11.829Z,12.30
2022-10-24T04:30:41.094Z,12.30
2022-10-24T04:33:08.992Z,12.30
2022-10-24T04:35:36.883Z,12.30
2022-10-24T04:38:04.787Z,12.30
2022-10-24T04:40:32.697Z,12.30
2022-10-24T04:43:00.541Z,12.30
2022-10-24T04:45:28.459Z,12.30
2022-10-24T04:47:57.698Z,12.30
2022-10-24T04:50:25.596Z,12.30
2022-10-24T04:52:53.510Z,12.30
2022-10-24T04:55:21.408Z,12.30
2022-10-24T04:57:49.381Z,12.30
2022-10-24T05:00:17.990Z,12.30
2022-10-24T05:02:46.121Z,12.30
2022-10-24T05:05:17.049Z,12.30
2022-10-24T05:07:45.148Z,12.30
2022-10-24T05:10:14.495Z,12.30
2022-10-24T05:12:44.421Z,12.30
2022-10-24T05:15:14.166Z,12.30
2022-10-24T05:17:42.051Z,12.30
2022-10-24T05:20:11.103Z,12.30
2022-10-24T05:22:40.679Z,12.30
2022-10-24T05:25:09.190Z,12.30
2022-10-24T05:27:37.240Z,12.30
2022-10-24T05:30:05.938Z,12.30
2022-10-24T05:32:36.018Z,12.30
2022-10-24T05:35:07.783Z,12.40
2022-10-24T05:37:35.713Z,12.30
2022-10-24T05:40:05.666Z,12.30
2022-10-24T05:42:33.539Z,12.30
2022-10-24T05:45:01.530Z,12.30
2022-10-24T05:47:29.462Z,12.30
2022-10-24T05:49:57.423Z,12.30
2022-10-24T05:52:25.406Z,12.30
2022-10-24T05:55:06.872Z,12.30
2022-10-24T05:57:37.370Z,12.30
2022-10-24T06:00:07.347Z,12.40
2022-10-24T06:02:40.311Z,12.40
2022-10-24T06:05:09.757Z,12.30
2022-10-24T06:07:38.009Z,12.30
2022-10-24T06:10:07.480Z,12.40
2022-10-24T06:12:37.191Z,12.40
2022-10-24T06:15:06.092Z,12.40
2022-10-24T06:17:33.976Z,12.50
2022-10-24T06:20:01.949Z,12.50
2022-10-24T06:22:29.875Z,12.60
2022-10-24T06:24:58.359Z,12.60
2022-10-24T06:27:26.266Z,12.60
2022-10-24T06:29:55.509Z,12.70
2022-10-24T06:32:23.430Z,12.70
2022-10-24T06:34:51.664Z,12.80
2022-10-24T06:37:19.560Z,12.80
2022-10-24T06:39:47.495Z,12.80
2022-10-24T06:42:15.837Z,12.90
2022-10-24T06:44:43.737Z,12.90
2022-10-24T06:47:13.050Z,12.90
2022-10-24T06:49:41.074Z,13.00
2022-10-24T06:52:09.056Z,13.00
2022-10-24T06:54:39.148Z,13.10
2022-10-24T06:57:07.091Z,13.20
2022-10-24T06:59:35.070Z,13.20
2022-10-24T07:02:05.812Z,13.20
2022-10-24T07:04:35.556Z,13.30
2022-10-24T07:07:03.451Z,13.40
2022-10-24T07:09:31.467Z,13.40
2022-10-24T07:12:00.250Z,13.50
2022-10-24T07:14:28.385Z,13.50
2022-10-24T07:16:56.335Z,13.60
2022-10-24T07:19:24.223Z,13.70
2022-10-24T07:21:53.635Z,13.70
2022-10-24T07:24:22.652Z,13.70
2022-10-24T07:26:50.570Z,13.90
2022-10-24T07:29:18.477Z,14.00
2022-10-24T07:31:48.475Z,14.10
2022-10-24T07:34:16.844Z,14.10
2022-10-24T07:36:44.920Z,14.10
2022-10-24T07:39:14.828Z,14.30
2022-10-24T07:41:43.276Z,14.40
2022-10-24T07:44:11.271Z,14.50
2022-10-24T07:46:39.308Z,14.70
2022-10-24T07:49:07.179Z,14.90
2022-10-24T07:51:35.131Z,15.10
2022-10-24T07:54:03.431Z,15.00
2022-10-24T07:56:32.642Z,15.10
2022-10-24T07:59:09.217Z,15.40
2022-10-24T08:01:37.606Z,15.60
2022-10-24T08:04:05.726Z,15.70
2022-10-24T08:06:33.673Z,15.80
2022-10-24T08:09:01.770Z,15.80
2022-10-24T08:11:32.637Z,16.10
2022-10-24T08:14:02.248Z,16.30
2022-10-24T08:16:30.282Z,16.50
2022-10-24T08:18:59.736Z,16.70
2022-10-24T08:21:27.880Z,16.80
2022-10-24T08:23:56.468Z,16.80
2022-10-24T08:26:26.414Z,17.10
2022-10-24T08:28:57.400Z,17.40
2022-10-24T08:31:26.335Z,18.00
2022-10-24T08:33:55.952Z,18.60
2022-10-24T08:36:28.734Z,19.10
2022-10-24T08:38:57.980Z,19.10
2022-10-24T08:41:30.688Z,19.30
2022-10-24T08:44:03.127Z,19.30
2022-10-24T08:46:44.233Z,19.60
2022-10-24T08:49:20.029Z,20.00
2022-10-24T08:51:53.264Z,20.00
2022-10-24T08:54:25.300Z,20.10
2022-10-24T08:56:57.831Z,19.70
2022-10-24T08:59:30.355Z,19.40
2022-10-24T09:02:04.242Z,19.20
2022-10-24T09:04:38.820Z,19.10
2022-10-24T09:07:08.394Z,18.80
2022-10-24T09:09:42.122Z,18.70
2022-10-24T09:12:13.949Z,18.80
2022-10-24T09:14:45.076Z,18.70
2022-10-24T09:19:52.951Z,18.80
2022-10-24T09:22:22.535Z,18.70
2022-10-24T09:24:54.398Z,18.30
2022-10-24T09:27:25.852Z,18.10
2022-10-24T09:29:55.261Z,18.00
2022-10-24T09:32:26.716Z,18.00
2022-10-24T09:34:55.596Z,17.90
2022-10-24T09:37:41.303Z,18.00
2022-10-24T09:40:20.476Z,18.00
2022-10-24T09:42:55.681Z,18.10
2022-10-24T09:45:36.422Z,18.20
2022-10-24T09:48:11.107Z,18.40
2022-10-24T09:50:44.459Z,18.60
2022-10-24T09:53:24.317Z,18.80
2022-10-24T09:55:54.509Z,18.80
2022-10-24T09:58:29.702Z,18.90
2022-10-24T10:01:04.755Z,18.80
2022-10-24T10:03:33.455Z,18.80
2022-10-24T10:06:06.080Z,18.80
2022-10-24T10:08:36.056Z,18.70
2022-10-24T10:11:07.385Z,18.80
2022-10-24T10:13:40.860Z,18.90
2022-10-24T10:16:23.754Z,18.80
2022-10-24T10:18:52.883Z,18.80
2022-10-24T10:21:23.181Z,18.80
2022-10-24T10:23:52.104Z,18.80
2022-10-24T10:26:24.213Z,18.80
2022-10-24T10:28:56.092Z,18.80
2022-10-24T10:31:34.666Z,18.70
2022-10-24T10:34:29.155Z,18.70
2022-10-24T10:37:24.741Z,18.70
2022-10-24T10:40:17.500Z,18.80
2022-10-24T10:42:57.051Z,18.60
2022-10-24T10:45:35.728Z,18.60
2022-10-24T10:48:18.867Z,18.60
2022-10-24T10:50:52.969Z,18.60
2022-10-24T10:53:32.624Z,18.50
2022-10-24T10:56:06.651Z,18.40
2022-10-24T10:58:43.405Z,18.40
2022-10-24T11:01:21.351Z,18.40
2022-10-24T11:03:55.391Z,18.50
2022-10-24T11:06:40.895Z,18.50
2022-10-24T11:09:26.232Z,18.50
2022-10-24T11:12:01.934Z,18.50
2022-10-24T11:14:32.763Z,18.50
2022-10-24T11:17:09.952Z,18.60
2022-10-24T11:19:51.040Z,18.60
2022-10-24T11:22:24.316Z,18.60
2022-10-24T11:24:58.892Z,18.70
2022-10-24T11:27:33.583Z,18.70
2022-10-24T11:30:07.328Z,18.70
2022-10-24T11:32:40.669Z,18.80
2022-10-24T11:35:23.278Z,18.80
2022-10-24T11:37:55.172Z,18.80
2022-10-24T11:40:25.330Z,18.80
2022-10-24T11:42:59.391Z,18.70
2022-10-24T11:45:34.347Z,18.70
2022-10-24T11:48:11.077Z,18.60
2022-10-24T11:50:48.125Z,18.60
2022-10-24T11:53:46.848Z,18.60
2022-10-24T11:56:22.379Z,18.70
2022-10-24T11:58:58.762Z,18.70
2022-10-24T12:01:48.255Z,18.70
2022-10-24T12:04:30.446Z,18.70
2022-10-24T12:07:43.049Z,18.80
2022-10-24T12:10:26.257Z,18.80
2022-10-24T12:13:16.256Z,18.80
2022-10-24T12:15:54.922Z,18.80
2022-10-24T12:18:29.897Z,18.90
2022-10-24T12:21:02.144Z,18.90
2022-10-24T12:23:32.372Z,19.00
2022-10-24T12:26:08.469Z,19.00
2022-10-24T12:28:38.046Z,18.90
2022-10-24T12:31:12.960Z,18.90
2022-10-24T12:33:41.365Z,18.90
2022-10-24T12:36:09.502Z,18.90
2022-10-24T12:39:09.643Z,18.90
2022-10-24T12:41:40.636Z,18.90
2022-10-24T12:44:42.799Z,18.90
2022-10-24T12:47:32.009Z,18.90
2022-10-24T12:50:15.971Z,19.00
2022-10-24T12:53:04.374Z,19.10
2022-10-24T12:56:08.828Z,19.30
2022-10-24T12:58:38.609Z,19.20
2022-10-24T13:01:10.424Z,19.30
2022-10-24T13:04:05.265Z,19.30
2022-10-24T13:06:45.461Z,19.50
2022-10-24T13:09:29.549Z,19.70
2022-10-24T13:12:09.843Z,20.10
2022-10-24T13:15:14.371Z,20.10
2022-10-24T13:17:51.048Z,20.00
2022-10-24T13:20:23.140Z,19.90
2022-10-24T13:23:00.506Z,19.80
2022-10-24T13:25:34.518Z,19.80
2022-10-24T13:28:39.034Z,19.80
2022-10-24T13:31:44.173Z,19.90
2022-10-24T13:34:33.286Z,20.10
2022-10-24T13:37:06.341Z,20.10
2022-10-24T13:39:40.323Z,20.10
2022-10-24T13:42:24.131Z,20.10
2022-10-24T13:44:55.624Z,20.00
2022-10-24T13:47:29.395Z,20.10
2022-10-24T13:50:01.393Z,20.00
2022-10-24T13:52:37.370Z,20.00
2022-10-24T13:55:18.338Z,20.10
2022-10-24T13:57:55.455Z,20.10
2022-10-24T14:00:28.735Z,20.00
2022-10-24T14:02:59.623Z,19.80
2022-10-24T14:05:32.666Z,19.70
2022-10-24T14:08:02.082Z,19.50
2022-10-24T14:10:30.956Z,19.40
2022-10-24T14:13:00.152Z,19.40
2022-10-24T14:15:32.620Z,19.30
2022-10-24T14:18:03.121Z,19.30
2022-10-24T14:20:33.363Z,19.20
2022-10-24T14:23:01.631Z,19.10
2022-10-24T14:25:33.213Z,19.10
2022-10-24T14:28:03.269Z,19.00
2022-10-24T14:30:35.137Z,19.00
2022-10-24T14:33:08.302Z,19.00
2022-10-24T14:35:36.404Z,19.00
2022-10-24T14:38:08.813Z,19.00
2022-10-24T14:40:37.913Z,19.00
2022-10-24T14:43:06.041Z,19.00
2022-10-24T14:45:35.268Z,19.10
2022-10-24T14:48:16.345Z,19.10
2022-10-24T14:50:47.164Z,19.00
2022-10-24T14:53:24.798Z,19.00
2022-10-24T14:55:53.955Z,18.90
2022-10-24T14:58:24.667Z,18.80
2022-10-24T15:00:55.223Z,18.80
2022-10-24T15:03:23.483Z,18.80
2022-10-24T15:05:56.810Z,18.70
2022-10-24T15:08:36.039Z,18.70
2022-10-24T15:11:17.671Z,18.60
2022-10-24T15:13:51.030Z,18.60
2022-10-24T15:16:37.575Z,18.50
2022-10-24T15:19:07.024Z,18.50
2022-10-24T15:21:39.516Z,18.50
2022-10-24T15:24:08.391Z,18.40
2022-10-24T15:26:39.495Z,18.40
2022-10-24T15:29:17.881Z,18.30
2022-10-24T15:31:49.065Z,18.30
2022-10-24T15:34:18.400Z,18.20
2022-10-24T15:36:48.506Z,18.20
2022-10-24T15:39:19.100Z,18.10
2022-10-24T15:41:47.050Z,18.10
2022-10-24T15:44:17.522Z,18.00
2022-10-24T15:46:47.216Z,18.00
2022-10-24T15:49:15.352Z,17.90
2022-10-24T15:51:49.065Z,17.90
2022-10-24T15:54:21.139Z,17.90
2022-10-24T15:56:49.770Z,17.80
2022-10-24T15:59:19.848Z,17.80
2022-10-24T16:01:53.124Z,17.70
2022-10-24T16:04:21.825Z,17.70
2022-10-24T16:06:50.461Z,17.70
2022-10-24T16:09:21.162Z,17.60
2022-10-24T16:11:49.547Z,17.70
2022-10-24T16:14:19.869Z,17.60
2022-10-24T16:16:47.917Z,17.60
2022-10-24T16:19:17.171Z,17.60
2022-10-24T16:21:45.595Z,17.60
2022-10-24T16:24:14.291Z,17.50
2022-10-24T16:26:42.542Z,17.50
2022-10-24T16:29:10.466Z,17.40
2022-10-24T16:31:38.813Z,17.40
2022-10-24T16:34:07.241Z,17.40
2022-10-24T16:36:36.466Z,17.40
2022-10-24T16:39:05.192Z,17.40
2022-10-24T16:41:33.231Z,17.40
2022-10-24T16:44:01.354Z,17.40
2022-10-24T16:46:29.536Z,17.40
2022-10-24T16:48:57.653Z,17.40
2022-10-24T16:51:31.732Z,17.30
2022-10-24T16:54:01.256Z,17.40
2022-10-24T16:56:29.489Z,17.30
2022-10-24T16:58:57.759Z,17.30
2022-10-24T17:01:27.789Z,17.20
2022-10-24T17:03:56.226Z,17.20
2022-10-24T17:06:24.133Z,17.20
2022-10-24T17:08:52.395Z,17.20
2022-10-24T17:11:43.842Z,17.20
2022-10-24T17:14:09.663Z,17.10
2022-10-24T17:16:37.602Z,17.10
2022-10-24T17:19:15.658Z,17.10
2022-10-24T17:21:46.729Z,17.10
2022-10-24T17:24:17.048Z,17.00
2022-10-24T17:26:47.061Z,17.00
2022-10-24T17:29:23.045Z,16.90
2022-10-24T17:31:51.147Z,16.90
2022-10-24T17:34:19.323Z,16.80
2022-10-24T17:36:53.657Z,16.80
2022-10-24T17:42:00.185Z,16.70
2022-10-24T17:44:28.444Z,16.70
2022-10-24T17:46:58.399Z,16.70
2022-10-24T17:49:26.701Z,16.60
2022-10-24T17:51:54.716Z,16.60
2022-10-24T17:54:23.055Z,16.60
2022-10-24T17:56:50.967Z,16.60
2022-10-24T17:59:21.825Z,16.60
2022-10-24T18:01:50.031Z,16.60
2022-10-24T18:04:18.185Z,16.50
2022-10-24T18:06:46.099Z,16.50
2022-10-24T18:09:14.146Z,16.50
2022-10-24T18:11:43.244Z,16.50
2022-10-24T18:14:11.127Z,16.40
2022-10-24T18:16:40.726Z,16.40
2022-10-24T18:19:08.745Z,16.40
2022-10-24T18:21:36.896Z,16.40
2022-10-24T18:24:07.451Z,16.30
2022-10-24T18:26:35.436Z,16.30
2022-10-24T18:29:03.306Z,16.20
2022-10-24T18:31:31.516Z,16.20
2022-10-24T18:34:04.832Z,16.20
2022-10-24T18:36:36.315Z,16.20
2022-10-24T18:39:05.003Z,16.20
2022-10-24T18:41:41.254Z,16.20
2022-10-24T18:44:25.860Z,16.20
2022-10-24T18:46:55.176Z,16.10
2022-10-24T18:49:25.572Z,16.20
2022-10-24T18:52:02.643Z,16.20
2022-10-24T18:54:30.930Z,16.20
2022-10-24T18:57:00.459Z,16.20
2022-10-24T18:59:30.725Z,16.30
2022-10-24T19:02:15.836Z,16.30
2022-10-24T19:04:53.394Z,16.20
2022-10-24T19:07:21.540Z,16.20
2022-10-24T19:09:49.550Z,16.20
2022-10-24T19:12:17.722Z,16.20
2022-10-24T19:14:46.216Z,16.20
2022-10-24T19:17:16.146Z,16.20
2022-10-24T19:19:45.433Z,16.20
2022-10-24T19:22:13.353Z,16.30
2022-10-24T19:24:41.270Z,16.30
2022-10-24T19:27:09.188Z,16.30
2022-10-24T19:29:37.058Z,16.30
2022-10-24T19:32:05.180Z,16.30
2022-10-24T19:34:34.765Z,16.30
2022-10-24T19:37:04.337Z,16.30
2022-10-24T19:39:33.958Z,16.30
2022-10-24T19:42:02.278Z,16.20
2022-10-24T19:44:30.169Z,16.20
2022-10-24T19:46:58.055Z,16.20
2022-10-24T19:49:26.122Z,16.10
2022-10-24T19:51:54.117Z,16.10
2022-10-24T19:54:23.372Z,16.10
2022-10-24T19:56:54.033Z,16.10
2022-10-24T19:59:22.470Z,16.20
2022-10-24T20:01:50.557Z,16.10
2022-10-24T20:04:18.523Z,16.10
2022-10-24T20:06:47.993Z,16.10
2022-10-24T20:09:15.871Z,16.10
2022-10-24T20:11:45.085Z,16.10
2022-10-24T20:14:13.002Z,16.10
2022-10-24T20:16:41.010Z,16.10
2022-10-24T20:19:08.942Z,16.00
2022-10-24T20:21:37.608Z,16.00
2022-10-24T20:24:06.384Z,16.00
2022-10-24T20:26:34.611Z,15.90
2022-10-24T20:29:04.338Z,15.90
2022-10-24T20:31:35.530Z,16.00
2022-10-24T20:34:09.495Z,16.00
2022-10-24T20:36:38.308Z,15.90
2022-10-24T20:39:07.233Z,15.90
2022-10-24T20:41:36.131Z,15.90
2022-10-24T20:44:06.876Z,15.90
2022-10-24T20:46:35.088Z,15.80
2022-10-24T20:49:03.416Z,15.80
2022-10-24T20:51:31.306Z,15.80
2022-10-24T20:53:59.247Z,15.80
2022-10-24T20:56:27.619Z,15.70
2022-10-24T20:58:56.343Z,15.60
2022-10-24T21:01:27.675Z,15.70
2022-10-24T21:03:56.994Z,15.60
2022-10-24T21:06:26.403Z,15.50
2022-10-24T21:08:56.410Z,15.50
2022-10-24T21:11:27.415Z,15.50
2022-10-24T21:13:56.880Z,15.40
2022-10-24T21:16:26.540Z,15.40
2022-10-24T21:18:54.756Z,15.30
2022-10-24T21:21:23.648Z,15.30
2022-10-24T21:23:52.526Z,15.30
2022-10-24T21:26:20.905Z,15.20
2022-10-24T21:28:49.084Z,15.20
2022-10-24T21:31:19.161Z,15.20
2022-10-24T21:33:48.980Z,15.10
2022-10-24T21:36:19.184Z,15.10
2022-10-24T21:38:48.271Z,15.00
2022-10-24T21:41:16.647Z,15.10
2022-10-24T21:43:44.833Z,15.10
2022-10-24T21:46:14.984Z,15.10
2022-10-24T21:48:44.158Z,15.10
2022-10-24T21:51:15.960Z,15.20
2022-10-24T21:53:46.448Z,15.20
2022-10-24T21:56:18.927Z,15.30
2022-10-24T21:58:48.357Z,15.20
2022-10-24T22:01:18.626Z,15.20
2022-10-24T22:03:47.114Z,15.20
2022-10-24T22:06:18.062Z,15.10
2022-10-24T22:08:47.178Z,15.10
2022-10-24T22:11:17.143Z,15.10
2022-10-24T22:13:45.295Z,15.10
2022-10-24T22:16:15.074Z,15.10
2022-10-24T22:18:43.186Z,15.00
2022-10-24T22:21:21.738Z,15.00
2022-10-24T22:23:49.580Z,15.00
2022-10-24T22:26:17.715Z,15.00
2022-10-24T22:28:45.616Z,14.90
2022-10-24T22:31:14.668Z,15.00
2022-10-24T22:33:43.565Z,15.00
2022-10-24T22:36:20.620Z,15.00
2022-10-24T22:38:51.853Z,15.00
2022-10-24T22:41:20.337Z,15.00
2022-10-24T22:43:48.825Z,15.00
2022-10-24T22:46:27.777Z,14.90
2022-10-24T22:49:00.123Z,14.90
2022-10-24T22:51:30.078Z,14.80
2022-10-24T22:53:58.560Z,14.80
2022-10-24T22:56:33.082Z,14.70
2022-10-24T22:59:02.022Z,14.60
2022-10-24T23:01:40.148Z,14.60
2022-10-24T23:04:21.059Z,14.60
2022-10-24T23:06:56.903Z,14.60
2022-10-24T23:09:24.876Z,14.60
2022-10-24T23:11:53.425Z,14.50
2022-10-24T23:14:21.804Z,14.40
2022-10-24T23:16:56.335Z,14.40
2022-10-24T23:19:26.082Z,14.30
2022-10-24T23:21:59.310Z,14.30
2022-10-24T23:24:28.436Z,14.20
2022-10-24T23:27:15.804Z,14.20
2022-10-24T23:29:46.081Z,14.20
2022-10-24T23:32:21.204Z,14.10
2022-10-24T23:34:49.924Z,14.10
2022-10-24T23:37:27.463Z,14.00
2022-10-24T23:39:56.190Z,14.00
2022-10-24T23:42:24.723Z,14.00
2022-10-24T23:44:53.272Z,14.00
2022-10-24T23:47:47.567Z,14.00
2022-10-24T23:50:23.420Z,13.90
2022-10-24T23:53:03.599Z,13.90
2022-10-24T23:55:32.136Z,13.90
2022-10-24T23:58:01.071Z,13.80
